createdAt,value
2022-08-07T00:04:16.849Z,89.2
2022-08-07T00:09:24.050Z,89.16
2022-08-07T00:14:32.249Z,89.42
2022-08-07T00:19:39.076Z,89.31
2022-08-07T00:24:47.926Z,89.47001
2022-08-07T00:29:54.856Z,89.62001
2022-08-07T00:35:02.002Z,89.67
2022-08-07T00:40:09.475Z,89.12001
2022-08-07T00:45:18.091Z,88.95
2022-08-07T00:50:25.497Z,88.75
2022-08-07T00:55:32.943Z,88.67
2022-08-07T01:00:40.496Z,88.42
2022-08-07T01:05:48.874Z,88.33
2022-08-07T01:10:55.575Z,88.23001
2022-08-07T01:16:03.913Z,88.21
2022-08-07T01:21:11.064Z,88.06
2022-08-07T01:26:34.927Z,88.02
2022-08-07T01:31:41.682Z,87.44
2022-08-07T01:36:49.372Z,87.43
2022-08-07T01:41:57.977Z,87.51
2022-08-07T01:47:06.160Z,87.65
2022-08-07T01:52:14.796Z,87.36
2022-08-07T01:57:21.498Z,87.0
2022-08-07T02:02:28.703Z,87.04
2022-08-07T02:09:07.663Z,88.22001
2022-08-07T02:14:14.129Z,89.21
2022-08-07T02:19:22.252Z,89.87
2022-08-07T02:24:30.810Z,90.55
2022-08-07T02:29:39.060Z,90.72001
2022-08-07T02:34:46.620Z,90.32001
2022-08-07T02:39:53.211Z,90.13
2022-08-07T02:45:01.784Z,90.23001
2022-08-07T02:50:08.863Z,89.84
2022-08-07T02:55:21.818Z,90.15
2022-08-07T03:00:28.403Z,90.28
2022-08-07T03:05:36.741Z,90.77
2022-08-07T03:10:44.079Z,90.64
2022-08-07T03:15:53.051Z,90.86
2022-08-07T03:21:01.128Z,91.12
2022-08-07T03:26:09.059Z,91.18
2022-08-07T03:31:17.335Z,91.06
2022-08-07T03:36:25.328Z,90.86
2022-08-07T03:41:32.053Z,90.63
2022-08-07T03:46:39.512Z,90.47
2022-08-07T03:51:47.427Z,90.42
2022-08-07T03:56:54.611Z,90.24
2022-08-07T04:02:02.434Z,90.2
2022-08-07T04:07:09.007Z,89.97001
2022-08-07T04:12:16.855Z,89.39
2022-08-07T04:17:25.310Z,89.23
2022-08-07T04:22:33.360Z,88.98001
2022-08-07T04:27:40.338Z,88.66
2022-08-07T04:32:48.789Z,88.86001
2022-08-07T04:37:57.276Z,88.45
2022-08-07T04:43:05.111Z,87.68001
2022-08-07T04:48:12.795Z,87.76999
2022-08-07T04:53:21.357Z,87.08
2022-08-07T04:58:28.725Z,86.90001
2022-08-07T05:03:37.691Z,86.18
2022-08-07T05:08:45.036Z,86.64001
2022-08-07T05:13:53.118Z,86.84
2022-08-07T05:19:00.485Z,86.33
2022-08-07T05:24:09.488Z,85.7
2022-08-07T05:29:17.034Z,85.46
2022-08-07T05:34:25.230Z,85.38
2022-08-07T05:39:34.095Z,85.09
2022-08-07T05:44:41.818Z,85.23001
2022-08-07T05:49:49.193Z,84.13
2022-08-07T05:54:57.874Z,83.96
2022-08-07T06:00:06.411Z,83.07
2022-08-07T06:05:13.459Z,82.64
2022-08-07T06:10:21.042Z,82.33001
2022-08-07T06:15:29.646Z,81.17
2022-08-07T06:20:36.053Z,80.69
2022-08-07T06:25:43.901Z,79.25
2022-08-07T06:30:52.886Z,77.28
2022-08-07T06:35:59.804Z,77.67
2022-08-07T06:41:08.126Z,76.34
2022-08-07T06:46:16.190Z,75.67
2022-08-07T06:51:24.155Z,72.71
2022-08-07T06:56:32.381Z,71.34
2022-08-07T07:01:41.205Z,68.69
2022-08-07T07:06:48.978Z,66.95
2022-08-07T07:11:56.647Z,65.23
2022-08-07T07:17:06.065Z,63.14
2022-08-07T07:22:12.691Z,60.92
2022-08-07T07:27:21.045Z,59.22
2022-08-07T07:32:42.747Z,57.7
2022-08-07T07:38:02.836Z,57.34
2022-08-07T07:43:11.637Z,58.19
2022-08-07T07:48:21.279Z,58.86
2022-08-07T07:53:29.202Z,58.04
2022-08-07T07:58:37.018Z,57.34
2022-08-07T08:03:44.859Z,57.98
2022-08-07T08:08:52.103Z,56.71
2022-08-07T08:13:59.751Z,57.38
2022-08-07T08:19:07.805Z,54.83
2022-08-07T08:24:15.776Z,46.69
2022-08-07T08:29:23.756Z,41.43
2022-08-07T08:34:31.295Z,42.0
2022-08-07T08:39:39.727Z,40.96
2022-08-07T08:44:47.625Z,39.09
2022-08-07T08:49:55.834Z,37.4
2022-08-07T08:55:02.753Z,36.02
2022-08-07T09:00:10.936Z,36.88
2022-08-07T09:05:20.085Z,35.43
2022-08-07T09:10:27.448Z,37.76
2022-08-07T09:15:35.980Z,36.72
2022-08-07T09:20:49.688Z,35.36
2022-08-07T09:25:57.343Z,33.27
2022-08-07T09:31:04.145Z,33.02
2022-08-07T09:36:13.046Z,31.44
2022-08-07T09:41:21.960Z,31.07
2022-08-07T09:46:29.344Z,32.46
2022-08-07T09:51:37.692Z,36.47
2022-08-07T09:56:44.382Z,36.96
2022-08-07T10:01:52.728Z,39.34
2022-08-07T10:07:01.450Z,40.29
2022-08-07T10:12:09.240Z,43.24
2022-08-07T10:17:17.292Z,43.64
2022-08-07T10:22:25.723Z,44.13
2022-08-07T10:27:32.979Z,44.66
2022-08-07T10:32:39.923Z,45.2
2022-08-07T10:37:47.899Z,44.88
2022-08-07T10:42:55.657Z,43.38
2022-08-07T10:48:02.764Z,44.92
2022-08-07T10:53:10.074Z,43.73
2022-08-07T10:58:17.963Z,43.39
2022-08-07T11:03:24.376Z,43.34
2022-08-07T11:08:32.734Z,42.62
2022-08-07T11:13:39.637Z,43.68
2022-08-07T11:18:47.640Z,43.28
2022-08-07T11:23:53.818Z,42.52
2022-08-07T11:29:01.479Z,41.77
2022-08-07T11:34:08.831Z,41.51
2022-08-07T11:39:16.727Z,43.08
2022-08-07T11:44:24.317Z,45.24
2022-08-07T11:49:37.496Z,44.58
2022-08-07T11:54:45.530Z,45.34
2022-08-07T11:59:52.600Z,44.23
2022-08-07T12:05:00.371Z,43.72
2022-08-07T12:10:08.187Z,44.46
2022-08-07T12:15:16.780Z,44.12
2022-08-07T12:20:24.939Z,44.36
2022-08-07T12:25:34.171Z,44.19
2022-08-07T12:30:41.496Z,43.54
2022-08-07T12:35:54.421Z,43.28
2022-08-07T12:41:00.380Z,42.68
2022-08-07T12:46:08.153Z,43.68
2022-08-07T12:51:15.353Z,44.82
2022-08-07T12:56:23.238Z,43.25
2022-08-07T13:01:31.321Z,43.4
2022-08-07T13:06:38.468Z,43.51
2022-08-07T13:11:45.530Z,44.3
2022-08-07T13:16:53.387Z,44.31
2022-08-07T13:22:01.243Z,44.02
2022-08-07T13:27:09.040Z,43.93
2022-08-07T13:32:16.729Z,44.32
2022-08-07T13:37:24.695Z,43.07
2022-08-07T13:42:33.691Z,43.99
2022-08-07T13:47:41.310Z,43.08
2022-08-07T13:52:47.584Z,43.26
2022-08-07T13:57:55.738Z,43.45
2022-08-07T14:03:02.907Z,43.04
2022-08-07T14:08:10.100Z,43.12
2022-08-07T14:13:17.697Z,43.32
2022-08-07T14:18:25.289Z,44.36
2022-08-07T14:23:32.733Z,44.23
2022-08-07T14:28:40.596Z,43.66
2022-08-07T14:33:46.491Z,44.72
2022-08-07T14:39:02.155Z,43.45
2022-08-07T14:44:09.179Z,45.38
2022-08-07T14:49:17.637Z,44.75
2022-08-07T14:54:24.504Z,44.11
2022-08-07T14:59:32.064Z,46.56
2022-08-07T15:04:39.328Z,46.33
2022-08-07T15:09:47.131Z,44.96
2022-08-07T15:14:55.443Z,46.12
2022-08-07T15:20:03.417Z,45.8
2022-08-07T15:25:11.277Z,46.84
2022-08-07T15:30:19.037Z,47.53
2022-08-07T15:35:26.299Z,48.72
2022-08-07T15:40:33.891Z,49.1
2022-08-07T15:45:41.461Z,49.74
2022-08-07T15:50:49.592Z,50.38
2022-08-07T15:55:57.697Z,49.34
2022-08-07T16:01:06.546Z,49.84
2022-08-07T16:06:15.640Z,51.53
2022-08-07T16:11:22.942Z,52.56
2022-08-07T16:16:37.979Z,53.0
2022-08-07T16:21:45.592Z,54.49
2022-08-07T16:26:53.769Z,55.27
2022-08-07T16:32:00.730Z,55.96
2022-08-07T16:37:08.902Z,56.26
2022-08-07T16:42:16.820Z,57.24
2022-08-07T16:47:23.741Z,56.92
2022-08-07T16:52:31.574Z,57.33
2022-08-07T16:57:38.136Z,57.96
2022-08-07T17:02:45.336Z,59.12
2022-08-07T17:07:52.588Z,60.02
2022-08-07T17:12:59.106Z,60.23
2022-08-07T17:18:07.258Z,60.41
2022-08-07T17:23:15.615Z,60.71
2022-08-07T17:28:23.264Z,61.72
2022-08-07T17:33:30.391Z,62.82
2022-08-07T17:38:38.165Z,63.48
2022-08-07T17:43:46.374Z,64.57
2022-08-07T17:48:53.336Z,65.18
2022-08-07T17:54:02.061Z,65.2
2022-08-07T17:59:10.019Z,65.56
2022-08-07T18:04:26.324Z,65.82
2022-08-07T18:09:33.016Z,66.24
2022-08-07T18:14:40.599Z,66.82
2022-08-07T18:19:49.134Z,67.18
2022-08-07T18:24:58.328Z,67.53
2022-08-07T18:30:06.272Z,68.67
2022-08-07T18:35:14.116Z,69.6
2022-08-07T18:40:21.336Z,69.36
2022-08-07T18:45:29.175Z,70.38
2022-08-07T18:50:36.457Z,70.67
2022-08-07T18:55:58.940Z,70.7
2022-08-07T19:01:05.499Z,70.92
2022-08-07T19:06:13.298Z,71.14
2022-08-07T19:11:20.838Z,71.7
2022-08-07T19:16:28.384Z,72.51
2022-08-07T19:21:36.446Z,73.11
2022-08-07T19:26:43.795Z,73.43
2022-08-07T19:31:53.177Z,73.96
2022-08-07T19:37:00.984Z,74.14
2022-08-07T19:42:08.860Z,74.33
2022-08-07T19:47:16.487Z,74.94
2022-08-07T19:52:26.390Z,75.44
2022-08-07T19:57:33.657Z,75.55
2022-08-07T20:02:42.236Z,75.72
2022-08-07T20:07:50.098Z,76.25
2022-08-07T20:12:58.207Z,76.74
2022-08-07T20:18:06.290Z,77.02
2022-08-07T20:23:12.886Z,77.56
2022-08-07T20:28:21.203Z,77.99
2022-08-07T20:33:28.551Z,78.3
2022-08-07T20:38:37.082Z,78.7
2022-08-07T20:43:45.354Z,78.71
2022-08-07T20:48:52.579Z,78.6
2022-08-07T20:54:01.621Z,78.11
2022-08-07T20:59:16.887Z,78.34
2022-08-07T21:04:23.837Z,78.38
2022-08-07T21:09:32.065Z,78.38
2022-08-07T21:14:39.566Z,78.77
2022-08-07T21:19:46.141Z,78.87001
2022-08-07T21:24:53.705Z,79.44
2022-08-07T21:30:01.644Z,78.86
2022-08-07T21:35:09.642Z,79.26
2022-08-07T21:40:17.495Z,79.79
2022-08-07T21:45:24.098Z,79.73001
2022-08-07T21:50:33.161Z,80.38
2022-08-07T21:55:40.381Z,80.02
2022-08-07T22:00:47.787Z,80.26
2022-08-07T22:05:55.413Z,80.0
2022-08-07T22:11:03.688Z,80.21
2022-08-07T22:16:11.846Z,80.03
2022-08-07T22:21:20.020Z,79.86
2022-08-07T22:26:27.926Z,80.28
2022-08-07T22:31:35.452Z,80.59
2022-08-07T22:36:42.452Z,80.25001
2022-08-07T22:41:50.090Z,79.91001
2022-08-07T22:46:59.277Z,80.52
2022-08-07T22:52:06.279Z,80.68
2022-08-07T22:57:14.815Z,80.80001
2022-08-07T23:02:22.408Z,81.0
2022-08-07T23:07:30.473Z,81.54
2022-08-07T23:12:37.336Z,82.17
2022-08-07T23:17:43.927Z,81.74
2022-08-07T23:22:51.742Z,81.88
2022-08-07T23:27:58.941Z,81.36001
2022-08-07T23:33:06.778Z,81.16
2022-08-07T23:38:14.648Z,80.84
2022-08-07T23:43:22.392Z,80.97
2022-08-07T23:48:30.284Z,80.7
2022-08-07T23:53:37.830Z,80.7
2022-08-07T23:58:45.625Z,80.98001
